createdAt,value
2023-03-18T00:01:12.113Z,70.65
2023-03-18T00:03:40.465Z,70.66
2023-03-18T00:06:15.484Z,70.60
2023-03-18T00:08:47.271Z,70.68
2023-03-18T00:11:19.102Z,70.86
2023-03-18T00:13:49.179Z,70.81
2023-03-18T00:16:17.860Z,70.88
2023-03-18T00:18:46.238Z,70.92
2023-03-18T00:21:14.587Z,71.10
2023-03-18T00:23:44.137Z,70.89
2023-03-18T00:26:12.645Z,70.95
2023-03-18T00:28:41.384Z,71.10
2023-03-18T00:31:13.688Z,71.00
2023-03-18T00:33:45.239Z,71.21
2023-03-18T00:36:15.012Z,71.25
2023-03-18T00:38:47.323Z,71.44
2023-03-18T00:41:18.551Z,71.53
2023-03-18T00:43:52.888Z,71.56
2023-03-18T00:46:24.589Z,71.40
2023-03-18T00:48:58.481Z,71.42
2023-03-18T00:51:31.476Z,71.48
2023-03-18T00:54:02.807Z,71.72
2023-03-18T00:56:33.278Z,71.84
2023-03-18T00:59:02.397Z,72.02
2023-03-18T01:01:31.548Z,72.04
2023-03-18T01:04:02.106Z,71.90
2023-03-18T01:06:34.022Z,71.94
2023-03-18T01:09:05.330Z,72.07
2023-03-18T01:11:33.862Z,71.98
2023-03-18T01:14:03.808Z,71.93
2023-03-18T01:16:32.328Z,72.02
2023-03-18T01:19:00.698Z,72.06
2023-03-18T01:21:29.042Z,72.23
2023-03-18T01:23:57.373Z,71.88
2023-03-18T01:26:26.299Z,71.94
2023-03-18T01:28:54.855Z,72.02
2023-03-18T01:31:25.477Z,71.96
2023-03-18T01:33:54.771Z,72.45
2023-03-18T01:36:23.194Z,72.22
2023-03-18T01:38:52.052Z,72.20
2023-03-18T01:41:20.370Z,72.38
2023-03-18T01:43:48.760Z,72.59
2023-03-18T01:46:45.068Z,72.61
2023-03-18T01:49:31.619Z,72.61
2023-03-18T01:52:08.418Z,72.57
2023-03-18T01:55:19.322Z,72.42
2023-03-18T01:57:49.733Z,72.66
2023-03-18T02:00:20.287Z,72.59
2023-03-18T02:02:52.882Z,72.73
2023-03-18T02:07:54.238Z,72.79
2023-03-18T02:10:30.131Z,72.81
2023-03-18T02:13:07.024Z,72.69
2023-03-18T02:16:00.860Z,72.73
2023-03-18T02:18:48.894Z,72.95
2023-03-18T02:21:41.979Z,73.00
2023-03-18T02:24:57.729Z,73.10
2023-03-18T02:27:32.203Z,73.01
2023-03-18T02:30:08.595Z,72.95
2023-03-18T02:32:38.444Z,72.86
2023-03-18T02:35:10.516Z,72.98
2023-03-18T02:37:39.213Z,73.07
2023-03-18T02:40:29.793Z,73.22
2023-03-18T02:43:18.607Z,73.25
2023-03-18T02:45:58.024Z,73.05
2023-03-18T02:48:34.538Z,73.25
2023-03-18T02:51:05.218Z,73.29
2023-03-18T02:53:35.308Z,73.44
2023-03-18T02:56:05.078Z,73.05
2023-03-18T02:58:33.949Z,73.13
2023-03-18T03:01:03.541Z,73.32
2023-03-18T03:03:32.233Z,73.46
2023-03-18T03:06:02.120Z,73.20
2023-03-18T03:08:30.827Z,73.17
2023-03-18T03:10:59.278Z,73.30
2023-03-18T03:13:27.873Z,73.48
2023-03-18T03:15:56.396Z,73.31
2023-03-18T03:18:25.530Z,73.28
2023-03-18T03:20:54.221Z,73.17
2023-03-18T03:23:23.153Z,73.30
2023-03-18T03:25:51.556Z,73.32
2023-03-18T03:28:21.396Z,73.39
2023-03-18T03:30:50.220Z,73.42
2023-03-18T03:33:18.647Z,73.59
2023-03-18T03:35:47.419Z,73.52
2023-03-18T03:38:16.243Z,73.66
2023-03-18T03:40:45.735Z,73.60
2023-03-18T03:43:15.810Z,73.65
2023-03-18T03:45:45.087Z,73.80
2023-03-18T03:48:13.882Z,73.94
2023-03-18T03:50:42.368Z,73.79
2023-03-18T03:53:10.750Z,74.18
2023-03-18T03:55:39.370Z,74.40
2023-03-18T03:58:07.715Z,74.23
2023-03-18T04:00:36.357Z,74.38
2023-03-18T04:03:04.826Z,74.21
2023-03-18T04:05:33.334Z,74.57
2023-03-18T04:08:01.749Z,74.73
2023-03-18T04:10:30.606Z,74.73
2023-03-18T04:12:59.212Z,74.61
2023-03-18T04:15:27.720Z,74.75
2023-03-18T04:17:56.153Z,74.87
2023-03-18T04:20:24.455Z,74.81
2023-03-18T04:22:53.122Z,74.95
2023-03-18T04:25:22.384Z,74.87
2023-03-18T04:27:52.748Z,75.04
2023-03-18T04:30:23.416Z,75.31
2023-03-18T04:32:52.570Z,75.20
2023-03-18T04:35:23.286Z,75.34
2023-03-18T04:37:51.646Z,75.39
2023-03-18T04:40:20.884Z,75.34
2023-03-18T04:42:49.386Z,75.40
2023-03-18T04:45:19.114Z,75.38
2023-03-18T04:47:47.574Z,75.55
2023-03-18T04:50:17.703Z,75.64
2023-03-18T04:52:46.497Z,75.56
2023-03-18T04:55:20.682Z,75.29
2023-03-18T04:57:50.711Z,75.50
2023-03-18T05:00:23.784Z,75.65
2023-03-18T05:02:52.217Z,75.47
2023-03-18T05:05:21.567Z,75.52
2023-03-18T05:07:49.893Z,75.33
2023-03-18T05:10:19.362Z,75.53
2023-03-18T05:12:48.651Z,75.70
2023-03-18T05:15:17.154Z,75.43
2023-03-18T05:17:45.925Z,75.57
2023-03-18T05:20:14.693Z,75.42
2023-03-18T05:22:43.155Z,75.30
2023-03-18T05:25:12.698Z,75.52
2023-03-18T05:27:42.056Z,75.54
2023-03-18T05:30:12.573Z,75.50
2023-03-18T05:32:42.423Z,75.43
2023-03-18T05:35:11.431Z,75.56
2023-03-18T05:37:39.951Z,75.70
2023-03-18T05:40:11.705Z,75.62
2023-03-18T05:42:55.292Z,75.59
2023-03-18T05:45:25.464Z,75.39
2023-03-18T05:47:53.854Z,75.42
2023-03-18T05:50:35.617Z,75.40
2023-03-18T05:53:05.865Z,75.46
2023-03-18T05:55:35.953Z,75.45
2023-03-18T05:58:04.442Z,75.46
2023-03-18T06:00:33.264Z,75.16
2023-03-18T06:03:02.479Z,74.87
2023-03-18T06:05:31.572Z,74.80
2023-03-18T06:08:01.353Z,74.76
2023-03-18T06:10:31.263Z,74.62
2023-03-18T06:13:00.438Z,74.53
2023-03-18T06:15:29.021Z,74.22
2023-03-18T06:17:57.599Z,74.32
2023-03-18T06:20:26.266Z,74.05
2023-03-18T06:22:54.684Z,74.03
2023-03-18T06:25:24.059Z,73.92
2023-03-18T06:27:52.948Z,73.84
2023-03-18T06:30:22.200Z,73.81
2023-03-18T06:32:50.854Z,73.76
2023-03-18T06:35:19.369Z,73.24
2023-03-18T06:37:48.647Z,73.12
2023-03-18T06:40:17.501Z,73.00
2023-03-18T06:42:46.488Z,72.81
2023-03-18T06:45:16.046Z,72.74
2023-03-18T06:47:46.634Z,72.54
2023-03-18T06:50:16.191Z,72.48
2023-03-18T06:52:45.045Z,72.23
2023-03-18T06:55:14.880Z,72.25
2023-03-18T06:57:43.684Z,72.60
2023-03-18T07:00:13.701Z,72.24
2023-03-18T07:02:42.048Z,72.19
2023-03-18T07:05:10.945Z,72.17
2023-03-18T07:07:40.231Z,71.97
2023-03-18T07:10:18.496Z,71.69
2023-03-18T07:12:48.186Z,71.44
2023-03-18T07:15:17.172Z,71.55
2023-03-18T07:17:45.593Z,71.38
2023-03-18T07:20:15.400Z,71.39
2023-03-18T07:22:45.534Z,71.34
2023-03-18T07:25:14.443Z,71.40
2023-03-18T07:27:42.801Z,71.29
2023-03-18T07:30:12.037Z,71.19
2023-03-18T07:32:40.462Z,71.08
2023-03-18T07:35:10.986Z,70.85
2023-03-18T07:37:40.315Z,70.49
2023-03-18T07:40:11.760Z,70.41
2023-03-18T07:42:40.242Z,69.95
2023-03-18T07:45:09.739Z,69.87
2023-03-18T07:47:39.428Z,69.70
2023-03-18T07:50:08.745Z,69.47
2023-03-18T07:52:37.540Z,69.33
2023-03-18T07:55:06.320Z,69.10
2023-03-18T07:57:36.755Z,68.99
2023-03-18T08:00:07.864Z,68.96
2023-03-18T08:02:37.097Z,68.70
2023-03-18T08:05:07.385Z,68.52
2023-03-18T08:07:36.389Z,68.51
2023-03-18T08:10:05.891Z,68.30
2023-03-18T08:12:49.343Z,68.42
2023-03-18T08:15:22.686Z,68.30
2023-03-18T08:17:52.726Z,68.06
2023-03-18T08:20:21.722Z,68.05
2023-03-18T08:22:50.348Z,67.97
2023-03-18T08:25:18.844Z,67.90
2023-03-18T08:27:47.209Z,67.86
2023-03-18T08:30:16.612Z,67.88
2023-03-18T08:32:45.281Z,68.06
2023-03-18T08:35:14.424Z,67.52
2023-03-18T08:37:42.882Z,67.16
2023-03-18T08:40:12.277Z,67.04
2023-03-18T08:42:40.625Z,66.71
2023-03-18T08:45:09.798Z,66.55
2023-03-18T08:47:39.523Z,66.40
2023-03-18T08:50:09.167Z,65.97
2023-03-18T08:52:41.338Z,65.46
2023-03-18T09:03:13.702Z,64.24
2023-03-18T09:05:42.634Z,64.09
2023-03-18T09:08:10.983Z,64.31
2023-03-18T09:10:39.822Z,64.32
2023-03-18T09:13:08.313Z,63.71
2023-03-18T09:15:36.854Z,63.28
2023-03-18T09:18:11.696Z,63.01
2023-03-18T09:20:41.641Z,62.91
2023-03-18T09:23:12.588Z,62.60
2023-03-18T09:25:44.305Z,62.30
2023-03-18T09:28:14.280Z,61.67
2023-03-18T09:30:42.736Z,61.18
2023-03-18T09:33:11.687Z,60.96
2023-03-18T09:35:40.361Z,60.83
2023-03-18T09:38:15.024Z,60.61
2023-03-18T09:41:10.777Z,60.52
2023-03-18T09:44:30.112Z,60.47
2023-03-18T09:47:58.646Z,60.55
2023-03-18T09:50:39.412Z,59.91
2023-03-18T09:53:24.559Z,59.48
2023-03-18T09:55:59.391Z,59.06
2023-03-18T09:58:56.375Z,59.26
2023-03-18T10:01:28.069Z,58.81
2023-03-18T10:04:16.213Z,58.67
2023-03-18T10:06:45.782Z,58.03
2023-03-18T10:09:39.606Z,57.62
2023-03-18T10:12:38.398Z,57.80
2023-03-18T10:15:27.956Z,57.48
2023-03-18T10:18:26.520Z,57.36
2023-03-18T10:21:16.772Z,57.77
2023-03-18T10:24:07.636Z,57.67
2023-03-18T10:26:48.884Z,57.62
2023-03-18T10:29:38.573Z,57.81
2023-03-18T10:32:15.059Z,57.77
2023-03-18T10:35:24.039Z,57.84
2023-03-18T10:38:17.894Z,57.01
2023-03-18T10:40:50.288Z,56.19
2023-03-18T10:43:25.243Z,56.02
2023-03-18T10:46:05.971Z,55.51
2023-03-18T10:48:40.912Z,55.14
2023-03-18T10:51:24.798Z,55.05
2023-03-18T10:54:39.310Z,54.30
2023-03-18T10:57:19.664Z,53.96
2023-03-18T10:59:52.192Z,53.31
2023-03-18T11:02:35.344Z,52.60
2023-03-18T11:05:26.929Z,51.85
2023-03-18T11:08:07.438Z,51.07
2023-03-18T11:10:48.812Z,50.17
2023-03-18T11:13:19.950Z,49.57
2023-03-18T11:15:56.556Z,49.39
2023-03-18T11:18:27.347Z,49.20
2023-03-18T11:21:04.750Z,49.20
2023-03-18T11:23:56.392Z,49.14
2023-03-18T11:26:30.360Z,49.82
2023-03-18T11:29:10.590Z,49.77
2023-03-18T11:32:44.667Z,49.51
2023-03-18T11:35:32.319Z,49.19
2023-03-18T11:38:06.959Z,49.12
2023-03-18T11:40:35.529Z,48.74
2023-03-18T11:43:16.798Z,49.13
2023-03-18T11:46:07.046Z,49.22
2023-03-18T11:48:39.401Z,49.42
2023-03-18T11:51:45.225Z,49.20
2023-03-18T11:54:25.738Z,49.46
2023-03-18T11:57:22.314Z,49.43
2023-03-18T12:00:02.351Z,49.10
2023-03-18T12:02:58.233Z,48.70
2023-03-18T12:06:13.557Z,48.12
2023-03-18T12:09:05.251Z,47.85
2023-03-18T12:12:31.977Z,47.04
2023-03-18T12:15:19.774Z,47.19
2023-03-18T12:18:25.956Z,46.56
2023-03-18T12:21:04.118Z,46.97
2023-03-18T12:23:44.431Z,46.95
2023-03-18T12:26:26.773Z,46.59
2023-03-18T12:29:52.677Z,46.39
2023-03-18T12:32:50.892Z,46.33
2023-03-18T12:35:39.541Z,46.43
2023-03-18T12:38:11.666Z,45.97
2023-03-18T12:41:06.653Z,45.70
2023-03-18T12:44:03.042Z,45.64
2023-03-18T12:46:42.788Z,45.88
2023-03-18T12:49:28.754Z,45.98
2023-03-18T12:52:36.047Z,45.47
2023-03-18T12:55:31.408Z,45.38
2023-03-18T12:58:10.820Z,45.93
2023-03-18T13:00:52.452Z,45.03
2023-03-18T13:03:33.043Z,44.21
2023-03-18T13:06:26.716Z,44.61
2023-03-18T13:09:35.791Z,44.77
2023-03-18T13:12:29.237Z,44.76
2023-03-18T13:15:01.108Z,45.00
2023-03-18T13:17:38.845Z,45.45
2023-03-18T13:20:33.436Z,45.48
2023-03-18T13:23:31.342Z,45.77
2023-03-18T13:26:29.148Z,45.27
2023-03-18T13:29:04.458Z,45.26
2023-03-18T13:32:17.930Z,45.08
2023-03-18T13:35:50.843Z,45.03
2023-03-18T13:38:46.470Z,45.25
2023-03-18T13:42:02.658Z,45.22
2023-03-18T13:45:02.312Z,44.66
2023-03-18T13:47:34.917Z,44.91
2023-03-18T13:50:20.637Z,44.94
2023-03-18T13:52:50.138Z,44.60
2023-03-18T13:55:39.771Z,44.35
2023-03-18T13:58:28.296Z,44.39
2023-03-18T14:00:57.082Z,44.80
2023-03-18T14:03:33.231Z,44.85
2023-03-18T14:06:09.369Z,44.54
2023-03-18T14:08:39.296Z,44.37
2023-03-18T14:11:40.468Z,44.54
2023-03-18T14:14:57.356Z,44.66
2023-03-18T14:17:38.713Z,44.71
2023-03-18T14:20:19.674Z,44.60
2023-03-18T14:22:52.358Z,44.23
2023-03-18T14:25:31.771Z,44.27
2023-03-18T14:28:21.810Z,44.18
2023-03-18T14:31:14.146Z,44.24
2023-03-18T14:34:04.165Z,44.02
2023-03-18T14:37:29.208Z,43.62
2023-03-18T14:40:17.018Z,44.06
2023-03-18T14:43:03.622Z,44.08
2023-03-18T14:45:37.576Z,43.73
2023-03-18T14:48:21.510Z,43.54
2023-03-18T14:50:52.848Z,43.69
2023-03-18T14:53:30.700Z,43.91
2023-03-18T14:56:00.360Z,44.08
2023-03-18T14:58:28.793Z,43.92
2023-03-18T15:01:14.038Z,44.13
2023-03-18T15:03:47.286Z,44.00
2023-03-18T15:06:25.713Z,44.20
2023-03-18T15:09:14.336Z,44.22
2023-03-18T15:11:46.673Z,44.29
2023-03-18T15:14:26.650Z,44.62
2023-03-18T15:17:14.794Z,44.74
2023-03-18T15:19:44.238Z,45.24
2023-03-18T15:22:26.133Z,45.84
2023-03-18T15:25:01.366Z,45.92
2023-03-18T15:27:36.515Z,46.23
2023-03-18T15:30:07.325Z,46.55
2023-03-18T15:32:49.842Z,46.83
2023-03-18T15:35:26.839Z,46.89
2023-03-18T15:38:04.315Z,46.93
2023-03-18T15:40:36.744Z,46.95
2023-03-18T15:43:19.250Z,47.06
2023-03-18T15:45:59.736Z,47.18
2023-03-18T15:48:29.846Z,47.56
2023-03-18T15:51:05.112Z,47.93
2023-03-18T15:53:47.793Z,48.26
2023-03-18T16:05:52.588Z,49.74
2023-03-18T16:08:22.855Z,50.14
2023-03-18T16:10:56.620Z,50.41
2023-03-18T16:13:29.808Z,50.77
2023-03-18T16:15:58.488Z,51.07
2023-03-18T16:18:27.451Z,51.34
2023-03-18T16:20:57.336Z,51.91
2023-03-18T16:23:25.654Z,52.28
2023-03-18T16:25:55.548Z,52.51
2023-03-18T16:28:28.086Z,52.84
2023-03-18T16:30:57.692Z,53.17
2023-03-18T16:33:26.209Z,53.60
2023-03-18T16:36:01.604Z,53.80
2023-03-18T16:38:31.311Z,54.05
2023-03-18T16:40:59.826Z,54.39
2023-03-18T16:43:31.614Z,54.53
2023-03-18T16:46:05.859Z,54.83
2023-03-18T16:48:34.349Z,55.11
2023-03-18T16:51:04.666Z,55.39
2023-03-18T16:53:39.288Z,55.69
2023-03-18T16:56:19.119Z,55.84
2023-03-18T16:58:47.439Z,56.19
2023-03-18T17:01:19.346Z,56.41
2023-03-18T17:03:48.167Z,56.53
2023-03-18T17:06:16.764Z,56.71
2023-03-18T17:08:45.009Z,56.96
2023-03-18T17:11:18.526Z,57.20
2023-03-18T17:13:47.275Z,57.51
2023-03-18T17:16:22.299Z,57.77
2023-03-18T17:18:50.731Z,58.03
2023-03-18T17:21:19.134Z,58.27
2023-03-18T17:23:47.785Z,58.31
2023-03-18T17:26:20.088Z,58.41
2023-03-18T17:28:50.159Z,58.44
2023-03-18T17:31:20.612Z,58.33
2023-03-18T17:33:48.979Z,58.32
2023-03-18T17:36:18.210Z,58.35
2023-03-18T17:38:46.677Z,58.33
2023-03-18T17:41:20.088Z,58.30
2023-03-18T17:43:48.804Z,58.38
2023-03-18T17:46:17.437Z,58.38
2023-03-18T17:48:46.209Z,58.52
2023-03-18T17:51:24.726Z,58.48
2023-03-18T17:53:59.449Z,58.51
2023-03-18T17:56:28.916Z,58.67
2023-03-18T17:58:57.316Z,58.75
2023-03-18T18:01:29.285Z,58.92
2023-03-18T18:04:00.422Z,58.94
2023-03-18T18:06:29.985Z,59.03
2023-03-18T18:09:01.081Z,59.06
2023-03-18T18:11:38.105Z,59.05
2023-03-18T18:14:23.635Z,59.13
2023-03-18T18:16:53.709Z,59.15
2023-03-18T18:19:22.908Z,59.24
2023-03-18T18:21:52.978Z,59.36
2023-03-18T18:24:33.408Z,59.48
2023-03-18T18:27:02.915Z,59.46
2023-03-18T18:29:33.225Z,59.55
2023-03-18T18:32:04.481Z,59.52
2023-03-18T18:34:32.974Z,59.65
2023-03-18T18:37:02.080Z,59.75
2023-03-18T18:39:30.599Z,59.76
2023-03-18T18:41:59.057Z,59.90
2023-03-18T18:44:28.610Z,60.07
2023-03-18T18:46:57.878Z,60.00
2023-03-18T18:49:26.283Z,60.07
2023-03-18T18:51:57.450Z,60.13
2023-03-18T18:54:25.796Z,60.24
2023-03-18T18:56:55.172Z,60.20
2023-03-18T18:59:33.746Z,60.22
2023-03-18T19:02:03.401Z,60.26
2023-03-18T19:04:31.977Z,60.32
2023-03-18T19:07:03.385Z,60.41
2023-03-18T19:09:31.828Z,60.65
2023-03-18T19:12:00.212Z,61.01
2023-03-18T19:14:29.544Z,61.35
2023-03-18T19:16:59.853Z,61.60
2023-03-18T19:19:34.415Z,61.72
2023-03-18T19:22:03.643Z,61.63
2023-03-18T19:24:38.055Z,61.73
2023-03-18T19:27:23.080Z,61.91
2023-03-18T19:29:54.232Z,61.83
2023-03-18T19:32:23.938Z,61.99
2023-03-18T19:34:54.599Z,62.09
2023-03-18T19:37:32.502Z,62.03
2023-03-18T19:40:12.651Z,62.03
2023-03-18T19:42:41.123Z,62.07
2023-03-18T19:45:14.606Z,62.02
2023-03-18T19:47:45.339Z,62.22
2023-03-18T19:50:19.655Z,62.19
2023-03-18T19:52:48.213Z,62.15
2023-03-18T19:55:17.874Z,62.23
2023-03-18T19:57:48.642Z,62.08
2023-03-18T20:00:24.767Z,62.21
2023-03-18T20:02:54.121Z,62.32
2023-03-18T20:05:25.832Z,62.45
2023-03-18T20:07:54.256Z,62.47
2023-03-18T20:10:22.676Z,62.69
2023-03-18T20:12:51.548Z,62.78
2023-03-18T20:15:25.649Z,63.02
2023-03-18T20:17:54.417Z,63.24
2023-03-18T20:20:27.551Z,63.45
2023-03-18T20:23:03.765Z,63.57
2023-03-18T20:25:41.586Z,63.65
2023-03-18T20:28:23.166Z,63.88
2023-03-18T20:30:56.326Z,64.06
2023-03-18T20:33:25.125Z,64.23
2023-03-18T20:35:54.430Z,64.53
2023-03-18T20:38:38.274Z,64.56
2023-03-18T20:41:07.276Z,64.82
2023-03-18T20:43:35.901Z,64.86
2023-03-18T20:46:04.535Z,64.99
2023-03-18T20:48:32.994Z,65.06
2023-03-18T20:51:02.658Z,65.20
2023-03-18T20:53:31.761Z,65.21
2023-03-18T20:56:00.130Z,65.43
2023-03-18T20:58:28.522Z,65.54
2023-03-18T21:00:57.619Z,65.71
2023-03-18T21:03:31.285Z,65.77
2023-03-18T21:06:06.697Z,65.87
2023-03-18T21:08:34.965Z,65.84
2023-03-18T21:11:03.478Z,66.05
2023-03-18T21:13:39.430Z,66.06
2023-03-18T21:16:14.363Z,66.33
2023-03-18T21:18:46.063Z,66.24
2023-03-18T21:21:34.132Z,66.12
2023-03-18T21:24:14.698Z,66.21
2023-03-18T21:26:54.245Z,66.28
2023-03-18T21:29:29.859Z,66.56
2023-03-18T21:31:58.236Z,66.51
2023-03-18T21:34:26.745Z,66.44
2023-03-18T21:36:55.773Z,66.31
2023-03-18T21:39:24.125Z,66.24
2023-03-18T21:41:52.545Z,66.49
2023-03-18T21:44:20.891Z,66.71
2023-03-18T21:46:49.221Z,66.71
2023-03-18T21:49:17.536Z,66.74
2023-03-18T21:51:46.628Z,66.78
2023-03-18T21:54:19.976Z,66.84
2023-03-18T21:56:48.418Z,66.80
2023-03-18T21:59:16.737Z,66.81
2023-03-18T22:01:45.309Z,66.96
2023-03-18T22:04:13.754Z,67.09
2023-03-18T22:06:42.193Z,67.17
2023-03-18T22:09:10.633Z,67.28
2023-03-18T22:11:39.156Z,67.55
2023-03-18T22:14:13.855Z,67.65
2023-03-18T22:16:42.236Z,67.68
2023-03-18T22:19:10.542Z,67.83
2023-03-18T22:21:38.951Z,67.71
2023-03-18T22:24:14.223Z,67.95
2023-03-18T22:26:42.533Z,68.02
2023-03-18T22:29:10.846Z,68.19
2023-03-18T22:31:40.818Z,68.08
2023-03-18T22:34:23.077Z,68.25
2023-03-18T22:36:51.387Z,68.49
2023-03-18T22:39:19.732Z,68.63
2023-03-18T22:41:48.045Z,68.63
2023-03-18T22:44:23.537Z,68.44
2023-03-18T22:46:51.943Z,68.48
2023-03-18T22:49:20.772Z,68.61
2023-03-18T22:51:49.098Z,68.53
2023-03-18T22:54:19.126Z,68.66
2023-03-18T22:56:47.634Z,68.70
2023-03-18T22:59:15.997Z,68.60
2023-03-18T23:01:44.828Z,68.58
2023-03-18T23:04:13.232Z,68.64
2023-03-18T23:06:41.717Z,68.64
2023-03-18T23:09:10.104Z,68.75
2023-03-18T23:11:38.634Z,68.86
2023-03-18T23:14:09.799Z,68.93
2023-03-18T23:16:38.225Z,68.82
2023-03-18T23:19:06.703Z,68.85
2023-03-18T23:21:35.459Z,68.98
2023-03-18T23:24:04.206Z,69.18
2023-03-18T23:26:32.665Z,69.44
2023-03-18T23:29:00.988Z,69.06
2023-03-18T23:31:29.386Z,69.04
2023-03-18T23:33:57.804Z,69.20
2023-03-18T23:36:26.590Z,69.28
2023-03-18T23:38:54.914Z,69.26
2023-03-18T23:41:23.196Z,69.33
2023-03-18T23:43:51.587Z,69.36
2023-03-18T23:46:19.934Z,69.44
2023-03-18T23:48:48.355Z,69.60
2023-03-18T23:51:16.701Z,69.59
2023-03-18T23:53:45.019Z,69.82
2023-03-18T23:56:14.089Z,69.84
2023-03-18T23:58:42.541Z,70.03
